createdAt,value
2022-10-06T00:03:50.244Z,100946.09
2022-10-06T00:08:53.355Z,100943.53
2022-10-06T00:13:56.399Z,100937.59
2022-10-06T00:19:01.176Z,100938.50
2022-10-06T00:24:04.192Z,100937.66
2022-10-06T00:29:07.241Z,100940.25
2022-10-06T00:34:11.689Z,100937.66
2022-10-06T00:39:14.794Z,100936.78
2022-10-06T00:44:17.801Z,100933.38
2022-10-06T00:49:24.956Z,100935.19
2022-10-06T00:54:28.621Z,100937.84
2022-10-06T00:59:31.691Z,100930.91
2022-10-06T01:04:37.447Z,100936.19
2022-10-06T01:09:41.271Z,100931.88
2022-10-06T01:14:44.405Z,100924.09
2022-10-06T01:19:50.707Z,100921.47
2022-10-06T01:24:55.341Z,100913.59
2022-10-06T01:29:58.976Z,100910.16
2022-10-06T01:35:02.073Z,100909.34
2022-10-06T01:40:07.041Z,100902.34
2022-10-06T01:45:10.378Z,100906.66
2022-10-06T01:50:13.355Z,100899.72
2022-10-06T01:55:17.841Z,100899.72
2022-10-06T02:00:21.071Z,100900.59
2022-10-06T02:05:24.126Z,100904.94
2022-10-06T02:10:28.457Z,100896.22
2022-10-06T02:15:33.409Z,100901.44
2022-10-06T02:20:36.481Z,100908.44
2022-10-06T02:25:40.930Z,100917.94
2022-10-06T02:30:44.265Z,100913.56
2022-10-06T02:35:47.406Z,100910.91
2022-10-06T02:40:51.835Z,100910.91
2022-10-06T02:45:56.106Z,100914.47
2022-10-06T02:51:00.115Z,100918.00
2022-10-06T02:56:05.824Z,100915.38
2022-10-06T03:01:09.407Z,100920.59
2022-10-06T03:06:22.874Z,100923.09
2022-10-06T03:11:29.117Z,100930.09
2022-10-06T03:16:33.854Z,100929.22
2022-10-06T03:21:38.077Z,100923.13
2022-10-06T03:26:43.198Z,100928.38
2022-10-06T03:31:46.287Z,100931.81
2022-10-06T03:36:49.472Z,100946.59
2022-10-06T03:41:53.861Z,100936.19
2022-10-06T03:46:56.973Z,100943.19
2022-10-06T03:52:00.175Z,100939.69
2022-10-06T03:57:04.796Z,100939.75
2022-10-06T04:02:07.934Z,100949.31
2022-10-06T04:07:11.040Z,100950.19
2022-10-06T04:12:15.492Z,100948.56
2022-10-06T04:17:18.500Z,100946.88
2022-10-06T04:22:21.511Z,100954.63
2022-10-06T04:27:29.007Z,100956.38
2022-10-06T04:32:32.609Z,100963.31
2022-10-06T04:37:35.708Z,100971.13
2022-10-06T04:42:40.290Z,100964.19
2022-10-06T04:47:43.325Z,100982.47
2022-10-06T04:52:46.430Z,100986.09
2022-10-06T04:57:50.845Z,100989.53
2022-10-06T05:02:54.502Z,100988.69
2022-10-06T05:07:57.596Z,101005.88
2022-10-06T05:13:03.775Z,101010.94
2022-10-06T05:18:06.886Z,101009.91
2022-10-06T05:23:09.988Z,101017.56
2022-10-06T05:28:14.715Z,101007.00
2022-10-06T05:33:17.811Z,101017.25
2022-10-06T05:38:21.205Z,101021.53
2022-10-06T05:43:25.659Z,101025.75
2022-10-06T05:48:29.734Z,101029.06
2022-10-06T05:53:34.199Z,101037.53
2022-10-06T05:58:39.623Z,101044.31
2022-10-06T06:03:43.670Z,101061.59
2022-10-06T06:08:46.916Z,101055.47
2022-10-06T06:13:51.439Z,101070.13
2022-10-06T06:18:54.518Z,101058.69
2022-10-06T06:23:57.995Z,101087.38
2022-10-06T06:29:04.142Z,101082.81
2022-10-06T06:34:07.782Z,101099.03
2022-10-06T06:39:13.420Z,101106.75
2022-10-06T06:44:17.923Z,101123.13
2022-10-06T06:49:22.080Z,101135.09
2022-10-06T06:54:27.702Z,101132.44
2022-10-06T06:59:33.049Z,101147.13
2022-10-06T07:04:37.442Z,101148.69
2022-10-06T07:09:40.477Z,101143.19
2022-10-06T07:14:58.785Z,101158.81
2022-10-06T07:20:19.381Z,101163.00
2022-10-06T07:25:25.930Z,101162.22
2022-10-06T07:30:31.430Z,101166.53
2022-10-06T07:35:34.574Z,101167.25
2022-10-06T07:40:40.227Z,101178.38
2022-10-06T07:45:51.231Z,101187.94
2022-10-06T07:50:54.824Z,101184.53
2022-10-06T07:56:05.167Z,101177.47
2022-10-06T08:01:11.537Z,101183.56
2022-10-06T08:06:16.995Z,101182.50
2022-10-06T08:11:20.412Z,101190.31
2022-10-06T08:16:30.253Z,101206.56
2022-10-06T08:21:34.842Z,101207.25
2022-10-06T08:26:37.839Z,101206.97
2022-10-06T08:31:42.288Z,101202.56
2022-10-06T08:37:02.174Z,101207.88
2022-10-06T08:42:10.563Z,101201.63
2022-10-06T08:47:18.403Z,101211.16
2022-10-06T08:52:27.476Z,101210.91
2022-10-06T08:57:35.601Z,101213.16
2022-10-06T09:02:43.597Z,101221.47
2022-10-06T09:07:52.449Z,101239.00
2022-10-06T09:12:58.006Z,101251.63
2022-10-06T09:18:10.793Z,101256.31
2022-10-06T09:23:16.528Z,101262.97
2022-10-06T09:28:19.790Z,101269.06
2022-10-06T09:33:25.273Z,101280.34
2022-10-06T09:38:46.092Z,101276.44
2022-10-06T09:43:53.579Z,101276.44
2022-10-06T09:49:11.449Z,101270.06
2022-10-06T09:54:16.369Z,101277.13
2022-10-06T09:59:21.361Z,101286.88
2022-10-06T10:04:26.886Z,101288.38
2022-10-06T10:09:31.662Z,101289.41
2022-10-06T10:14:37.849Z,101293.50
2022-10-06T10:19:43.002Z,101300.97
2022-10-06T10:24:51.427Z,101299.28
2022-10-06T10:30:01.814Z,101298.63
2022-10-06T10:35:10.484Z,101298.19
2022-10-06T10:40:23.605Z,101304.72
2022-10-06T10:45:32.303Z,101305.66
2022-10-06T10:50:40.638Z,101317.41
2022-10-06T10:55:47.482Z,101317.41
2022-10-06T11:00:53.292Z,101334.59
2022-10-06T11:06:06.097Z,101344.84
2022-10-06T11:11:14.335Z,101337.25
2022-10-06T11:16:23.900Z,101338.47
2022-10-06T11:21:28.508Z,101332.13
2022-10-06T11:26:42.531Z,101341.22
2022-10-06T11:31:54.709Z,101342.16
2022-10-06T11:37:02.632Z,101343.50
2022-10-06T11:42:11.558Z,101346.22
2022-10-06T11:47:17.467Z,101344.50
2022-10-06T11:52:36.870Z,101347.44
2022-10-06T11:58:12.598Z,101360.81
2022-10-06T12:03:56.668Z,101364.75
2022-10-06T12:08:59.731Z,101363.97
2022-10-06T12:19:32.551Z,101357.19
2022-10-06T12:24:41.296Z,101354.75
2022-10-06T12:29:48.948Z,101361.72
2022-10-06T12:34:57.052Z,101388.31
2022-10-06T12:40:15.168Z,101398.81
2022-10-06T12:45:19.739Z,101396.41
2022-10-06T12:50:25.347Z,101405.81
2022-10-06T12:55:34.655Z,101405.31
2022-10-06T13:00:40.991Z,101412.28
2022-10-06T13:05:50.031Z,101427.88
2022-10-06T13:11:11.403Z,101436.09
2022-10-06T13:16:15.976Z,101439.72
2022-10-06T13:21:19.100Z,101443.31
2022-10-06T13:26:23.218Z,101457.56
2022-10-06T13:31:28.434Z,101466.50
2022-10-06T13:36:32.390Z,101459.78
2022-10-06T13:41:37.156Z,101456.44
2022-10-06T13:46:45.161Z,101453.03
2022-10-06T13:51:49.767Z,101457.25
2022-10-06T13:56:53.316Z,101468.94
2022-10-06T14:01:58.569Z,101475.28
2022-10-06T14:07:02.840Z,101486.88
2022-10-06T14:12:07.445Z,101480.03
2022-10-06T14:17:21.749Z,101476.88
2022-10-06T14:22:31.408Z,101483.22
2022-10-06T14:27:34.584Z,101498.44
2022-10-06T14:32:40.222Z,101511.13
2022-10-06T14:37:43.372Z,101522.13
2022-10-06T14:47:55.880Z,101526.28
2022-10-06T14:53:00.054Z,101535.13
2022-10-06T14:58:03.825Z,101552.78
2022-10-06T15:03:08.331Z,101548.66
2022-10-06T15:08:11.902Z,101549.66
2022-10-06T15:13:15.040Z,101559.38
2022-10-06T15:18:19.582Z,101567.41
2022-10-06T15:23:22.701Z,101556.16
2022-10-06T15:28:43.317Z,101562.34
2022-10-06T15:33:49.871Z,101580.84
2022-10-06T15:38:57.125Z,101590.56
2022-10-06T15:44:00.438Z,101600.22
2022-10-06T15:49:06.192Z,101611.94
2022-10-06T15:54:10.933Z,101623.47
2022-10-06T15:59:14.127Z,101627.09
2022-10-06T16:04:26.118Z,101648.34
2022-10-06T16:09:30.687Z,101660.81
2022-10-06T16:14:34.162Z,101663.50
2022-10-06T16:19:40.125Z,101668.81
2022-10-06T16:24:43.385Z,101674.16
2022-10-06T16:29:46.482Z,101686.47
2022-10-06T16:34:51.476Z,101705.91
2022-10-06T16:39:54.641Z,101715.56
2022-10-06T16:44:57.709Z,101713.88
2022-10-06T16:50:02.183Z,101730.69
2022-10-06T16:55:05.606Z,101732.50
2022-10-06T17:00:09.303Z,101734.38
2022-10-06T17:05:13.762Z,101743.19
2022-10-06T17:10:20.655Z,101745.03
2022-10-06T17:15:24.084Z,101763.50
2022-10-06T17:20:28.523Z,101770.53
2022-10-06T17:25:31.646Z,101766.31
2022-10-06T17:30:34.993Z,101779.50
2022-10-06T17:35:39.540Z,101781.31
2022-10-06T17:40:44.301Z,101791.03
2022-10-06T17:45:47.814Z,101794.53
2022-10-06T17:50:59.748Z,101802.47
2022-10-06T17:56:07.404Z,101797.19
2022-10-06T18:01:12.743Z,101805.97
2022-10-06T18:06:17.882Z,101813.06
2022-10-06T18:11:38.497Z,101813.97
2022-10-06T18:16:42.522Z,101820.19
2022-10-06T18:21:48.100Z,101821.16
2022-10-06T18:26:51.887Z,101831.72
2022-10-06T18:31:55.517Z,101827.41
2022-10-06T18:37:00.435Z,101831.81
2022-10-06T18:42:05.414Z,101838.81
2022-10-06T18:47:37.513Z,101849.31
2022-10-06T18:52:43.819Z,101853.72
2022-10-06T18:57:47.278Z,101850.28
2022-10-06T19:02:51.899Z,101859.06
2022-10-06T19:07:56.517Z,101869.59
2022-10-06T19:12:59.574Z,101871.41
2022-10-06T19:18:04.199Z,101881.91
2022-10-06T19:23:08.771Z,101889.81
2022-10-06T19:28:11.852Z,101891.59
2022-10-06T19:33:15.001Z,101895.94
2022-10-06T19:38:19.417Z,101906.47
2022-10-06T19:43:25.777Z,101909.06
2022-10-06T19:48:29.289Z,101916.06
2022-10-06T19:53:34.449Z,101914.34
2022-10-06T19:58:37.726Z,101916.09
2022-10-06T20:03:41.650Z,101935.28
2022-10-06T20:08:46.170Z,101933.50
2022-10-06T20:13:49.758Z,101938.78
2022-10-06T20:18:52.863Z,101939.66
2022-10-06T20:23:58.248Z,101943.13
2022-10-06T20:29:01.700Z,101941.38
2022-10-06T20:34:07.243Z,101948.34
2022-10-06T20:39:31.440Z,101959.63
2022-10-06T20:44:34.503Z,101967.47
2022-10-06T20:49:37.731Z,101953.56
2022-10-06T20:54:42.313Z,101964.84
2022-10-06T20:59:46.274Z,101963.09
2022-10-06T21:04:49.393Z,101971.78
2022-10-06T21:09:53.882Z,101969.16
2022-10-06T21:14:57.480Z,101971.72
2022-10-06T21:20:00.653Z,101969.97
2022-10-06T21:25:05.309Z,101969.94
2022-10-06T21:30:10.263Z,101975.13
2022-10-06T21:35:13.412Z,101983.78
2022-10-06T21:40:17.862Z,101978.53
2022-10-06T21:45:24.327Z,101985.41
2022-10-06T21:50:28.149Z,101992.34
2022-10-06T21:55:32.612Z,101993.22
2022-10-06T22:00:36.128Z,101993.94
2022-10-06T22:05:39.272Z,101997.34
2022-10-06T22:10:43.697Z,102004.13
2022-10-06T22:15:46.842Z,102010.13
2022-10-06T22:20:49.961Z,102010.22
2022-10-06T22:25:58.203Z,102005.78
2022-10-06T22:31:05.375Z,102003.91
2022-10-06T22:36:09.364Z,102003.00
2022-10-06T22:41:14.364Z,102005.63
2022-10-06T22:46:17.474Z,102013.53
2022-10-06T22:51:20.671Z,102005.78
2022-10-06T22:56:29.209Z,102008.31
2022-10-06T23:01:32.385Z,102013.41
2022-10-06T23:06:36.152Z,102010.88
2022-10-06T23:11:40.577Z,102014.28
2022-10-06T23:16:43.684Z,102010.72
2022-10-06T23:21:46.878Z,102022.88
2022-10-06T23:26:51.336Z,102021.88
2022-10-06T23:31:54.501Z,102021.91
2022-10-06T23:36:57.639Z,102023.56
2022-10-06T23:42:02.106Z,102023.56
2022-10-06T23:47:05.445Z,102030.34
2022-10-06T23:52:08.501Z,102023.47
2022-10-06T23:57:12.855Z,102038.13
